M I D A S
Marine Information and Data Acquisition System
Tripno 1337 of the Zeeleeuw from 2007-07-04 06:37:35 to 2007-07-04 15:13:46
Back to CruiseResearch ActivitiesStationsMapUnderway DataData graphs

EquipmentUnitsComment
TimeDGPSUTC
LatitudeDGPSDM.mWGS84
LongitudeDGPSDM.mWGS84
HeadingGyrodeg 
SOGDGPSknotsSpeed over ground
COGDGPSdegCourse over ground
DepthEcho soundermeters200 kHz
Missing or incorrect values are displayed as -999
Navigation data collected by the RV Zeeleeuw from 2007-07-04 06:35:43 to 2007-07-04 15:23:39
                                                                                    Next 1000 lines
Time Latitude Longitude Heading SOG COG Depth
2007-07-04 06:35:52 51°13.599 2°56.094 124.8 0.1 303 8.6
2007-07-04 06:35:58 51°13.598 2°56.094 124.1 -999 214 8.7
2007-07-04 06:36:03 51°13.598 2°56.094 123.4 -999 182 8.5
2007-07-04 06:36:08 51°13.598 2°56.094 123 -999 136 8.5
2007-07-04 06:36:13 51°13.598 2°56.094 122.8 0.1 135 8.5
2007-07-04 06:36:18 51°13.598 2°56.094 122.9 0.2 119 8.5
2007-07-04 06:36:23 51°13.598 2°56.095 123.4 0.2 130 8.6
2007-07-04 06:36:28 51°13.598 2°56.095 124.2 0.3 130 8.6
2007-07-04 06:36:33 51°13.597 2°56.095 125.1 0.2 154 8.6
2007-07-04 06:36:38 51°13.598 2°56.095 126.2 0.1 35 8.5
2007-07-04 06:36:43 51°13.598 2°56.095 127 0.1 301 8.6
2007-07-04 06:36:48 51°13.598 2°56.095 127 0.1 302 8.6
2007-07-04 06:36:53 51°13.598 2°56.095 127 -999 257 8.5
2007-07-04 06:36:58 51°13.598 2°56.095 126.8 -999 28 8.6
2007-07-04 06:37:03 51°13.598 2°56.095 126.8 -999 118 8.6
2007-07-04 06:37:08 51°13.598 2°56.095 126.6 0.1 111 8.5
2007-07-04 06:37:13 51°13.598 2°56.095 126.5 0.1 96 8.6
2007-07-04 06:37:18 51°13.598 2°56.096 126.3 0.1 108 8.5
2007-07-04 06:37:23 51°13.598 2°56.096 126 0.1 94 8.5
2007-07-04 06:37:27 51°13.598 2°56.096 125.7 -999 108 8.5
2007-07-04 06:37:33 51°13.598 2°56.096 125.5 -999 316 8.5
2007-07-04 06:37:38 51°13.598 2°56.096 125.1 -999 316 8.6
2007-07-04 06:37:43 51°13.598 2°56.096 124.8 -999 141 8.6
2007-07-04 06:37:48 51°13.598 2°56.096 124.6 -999 163 8.6
2007-07-04 06:37:52 51°13.598 2°56.096 123.7 0.1 179 8.6
2007-07-04 06:37:58 51°13.598 2°56.096 122.6 0.1 189 8.5
2007-07-04 06:38:03 51°13.598 2°56.096 121.2 0.1 191 8.6
2007-07-04 06:38:08 51°13.597 2°56.096 119.5 -999 240 8.5
2007-07-04 06:38:12 51°13.597 2°56.096 117.5 0.1 184 8.5
2007-07-04 06:38:18 51°13.597 2°56.095 115.7 0.1 197 8.4
2007-07-04 06:38:23 51°13.597 2°56.095 114.1 0.1 195 8.5
2007-07-04 06:38:28 51°13.597 2°56.095 112.7 0.1 189 8.5
2007-07-04 06:38:33 51°13.597 2°56.095 111.8 0.2 202 8.5
2007-07-04 06:38:38 51°13.596 2°56.095 111.5 0.2 210 8.6
2007-07-04 06:38:43 51°13.596 2°56.095 111.7 0.1 242 8.4
2007-07-04 06:38:48 51°13.596 2°56.094 112.3 0.1 242 8.5
2007-07-04 06:38:53 51°13.596 2°56.094 112.8 0.1 285 8.5
2007-07-04 06:38:58 51°13.596 2°56.094 113.3 -999 216 8.6
2007-07-04 06:39:03 51°13.596 2°56.094 113.9 -999 70 8.5
2007-07-04 06:39:08 51°13.597 2°56.095 114.6 0.1 51 8.5
2007-07-04 06:39:13 51°13.597 2°56.095 115.4 0.1 45 8.5
2007-07-04 06:39:18 51°13.597 2°56.095 115.9 0.1 34 8.5
2007-07-04 06:39:23 51°13.597 2°56.095 116.1 0.1 35 8.5
2007-07-04 06:39:27 51°13.597 2°56.095 116.3 0.1 24 8.5
2007-07-04 06:39:33 51°13.597 2°56.095 116.4 -999 45 8.6
2007-07-04 06:39:38 51°13.597 2°56.095 116.5 0.1 10 8.5
2007-07-04 06:39:43 51°13.597 2°56.095 117 -999 304 8.5
2007-07-04 06:39:47 51°13.597 2°56.095 117.5 0.1 350 8.5
2007-07-04 06:39:52 51°13.597 2°56.095 118.5 0.1 304 8.5
2007-07-04 06:39:58 51°13.597 2°56.095 119.7 0.1 331 8.5
2007-07-04 06:40:03 51°13.597 2°56.095 121.1 -999 295 8.5
2007-07-04 06:40:07 51°13.597 2°56.095 122.4 -999 340 8.5
2007-07-04 06:40:13 51°13.597 2°56.095 123.7 -999 291 8.5
2007-07-04 06:40:18 51°13.597 2°56.095 124.8 0.1 355 8.5
2007-07-04 06:40:23 51°13.597 2°56.095 126.1 -999 291 8.5
2007-07-04 06:40:28 51°13.597 2°56.095 127.2 0.1 26 8.5
2007-07-04 06:40:32 51°13.597 2°56.095 128.3 -999 124 8.5
2007-07-04 06:40:38 51°13.597 2°56.095 128.6 0.1 57 8.5
2007-07-04 06:40:43 51°13.597 2°56.095 128.6 -999 64 8.5
2007-07-04 06:40:48 51°13.597 2°56.095 128.4 0.1 47 8.5
2007-07-04 06:40:52 51°13.597 2°56.096 128.2 0.1 76 8.5
2007-07-04 06:40:58 51°13.598 2°56.096 127.7 0.1 77 8.5
2007-07-04 06:41:03 51°13.598 2°56.096 126.9 0.1 78 8.5
2007-07-04 06:41:08 51°13.598 2°56.096 126.2 -999 124 8.7
2007-07-04 06:41:13 51°13.597 2°56.096 126 -999 163 8.5
2007-07-04 06:41:18 51°13.597 2°56.096 126 -999 114 8.5
2007-07-04 06:41:23 51°13.598 2°56.096 126 -999 142 8.5
2007-07-04 06:41:27 51°13.598 2°56.096 125.9 -999 151 8.5
2007-07-04 06:41:33 51°13.598 2°56.096 125.8 -999 289 8.5
2007-07-04 06:41:38 51°13.598 2°56.096 125.7 -999 141 8.5
2007-07-04 06:41:43 51°13.598 2°56.096 125.6 -999 217 8.4
2007-07-04 06:41:47 51°13.598 2°56.096 125.6 -999 312 8.5
2007-07-04 06:41:52 51°13.598 2°56.096 125.6 -999 287 8.5
2007-07-04 06:41:58 51°13.598 2°56.096 125.7 0.1 145 8.4
2007-07-04 06:42:03 51°13.598 2°56.096 125.7 -999 161 8.4
2007-07-04 06:42:07 51°13.597 2°56.096 125.8 -999 164 8.4
2007-07-04 06:42:12 51°13.598 2°56.096 125.8 -999 189 8.4
2007-07-04 06:42:18 51°13.597 2°56.096 126 0.1 198 8.5
2007-07-04 06:42:23 51°13.597 2°56.096 126.2 0.1 223 8.5
2007-07-04 06:42:27 51°13.597 2°56.095 126.4 0.1 266 8.5
2007-07-04 06:42:33 51°13.597 2°56.095 126.6 0.1 236 8.5
2007-07-04 06:42:38 51°13.597 2°56.095 126.6 -999 219 8.6
2007-07-04 06:42:43 51°13.597 2°56.095 126.8 -999 140 8.5
2007-07-04 06:42:48 51°13.597 2°56.096 126.8 0.1 155 8.5
2007-07-04 06:42:53 51°13.597 2°56.096 126.7 0.1 84 8.5
2007-07-04 06:42:58 51°13.598 2°56.096 126.7 -999 59 8.5
2007-07-04 06:43:03 51°13.598 2°56.096 126.5 -999 64 8.4
2007-07-04 06:43:08 51°13.598 2°56.096 126.1 -999 135 8.4
2007-07-04 06:43:12 51°13.598 2°56.096 125.6 -999 123 8.4
2007-07-04 06:43:18 51°13.598 2°56.096 125.3 -999 168 8.5
2007-07-04 06:43:23 51°13.598 2°56.096 124.5 0.1 210 8.5
2007-07-04 06:43:28 51°13.598 2°56.096 124 0.1 202 8.5
2007-07-04 06:43:33 51°13.598 2°56.096 123.7 0.1 200 8.5
2007-07-04 06:43:38 51°13.598 2°56.096 123.3 0.1 203 8.5
2007-07-04 06:43:43 51°13.597 2°56.096 123 0.1 216 8.5
2007-07-04 06:43:48 51°13.597 2°56.096 122.7 0.1 240 8.5
2007-07-04 06:43:53 51°13.597 2°56.096 122.6 0.1 193 8.4
2007-07-04 06:43:58 51°13.597 2°56.096 122.4 0.1 187 8.4
2007-07-04 06:44:03 51°13.597 2°56.096 122.3 -999 169 8.5
2007-07-04 06:44:07 51°13.597 2°56.096 122.3 0.1 111 8.5
2007-07-04 06:44:13 51°13.597 2°56.096 122 -999 76 8.4
2007-07-04 06:44:18 51°13.598 2°56.096 121.7 0.1 58 8.4
2007-07-04 06:44:23 51°13.598 2°56.097 121.5 0.1 41 8.4
2007-07-04 06:44:28 51°13.598 2°56.097 121.3 -999 92 8.4
2007-07-04 06:44:32 51°13.598 2°56.097 121.1 -999 62 8.4
2007-07-04 06:44:38 51°13.597 2°56.096 121 0.1 213 8.5
2007-07-04 06:44:43 51°13.597 2°56.096 121.2 0.1 180 8.4
2007-07-04 06:44:48 51°13.597 2°56.096 121.2 0.1 174 8.4
2007-07-04 06:44:52 51°13.597 2°56.096 121 0.1 187 8.4
2007-07-04 06:44:58 51°13.597 2°56.097 120.4 0.1 179 8.4
2007-07-04 06:45:03 51°13.597 2°56.097 119.5 -999 191 8.4
2007-07-04 06:45:08 51°13.597 2°56.097 118.5 0.1 199 8.4
2007-07-04 06:45:13 51°13.597 2°56.097 117.7 -999 188 8.5
2007-07-04 06:45:18 51°13.597 2°56.097 116.8 0.1 163 8.4
2007-07-04 06:45:23 51°13.597 2°56.097 115.7 0.1 158 8.4
2007-07-04 06:45:28 51°13.597 2°56.096 115 -999 221 8.4
2007-07-04 06:45:33 51°13.597 2°56.096 114.2 -999 235 8.4
2007-07-04 06:45:38 51°13.597 2°56.096 113.5 0.1 317 8.4
2007-07-04 06:45:43 51°13.597 2°56.096 112.9 0.2 299 8.4
2007-07-04 06:45:48 51°13.597 2°56.095 112.7 0.3 308 8.4
2007-07-04 06:45:53 51°13.598 2°56.094 113.2 0.7 303 8.4
2007-07-04 06:45:58 51°13.599 2°56.092 113.8 1.2 299 8.4
2007-07-04 06:46:03 51°13.6 2°56.089 114.5 1.6 299 8.4
2007-07-04 06:46:07 51°13.601 2°56.086 115 2 297 8.4
2007-07-04 06:46:13 51°13.602 2°56.08 115.1 2.4 297 8.5
2007-07-04 06:46:18 51°13.604 2°56.075 115.2 2.7 297 -999
2007-07-04 06:46:23 51°13.606 2°56.069 115.8 2.9 297 -999
2007-07-04 06:46:28 51°13.608 2°56.063 116.3 3.1 297 -999
2007-07-04 06:46:33 51°13.61 2°56.057 116.4 3.2 296 -999
2007-07-04 06:46:38 51°13.612 2°56.05 116 3.3 296 -999
2007-07-04 06:46:43 51°13.614 2°56.043 115.4 3.4 295 -999
2007-07-04 06:46:48 51°13.616 2°56.037 114.6 3.4 295 -999
2007-07-04 06:46:53 51°13.618 2°56.029 113.7 3.6 293 -999
2007-07-04 06:46:58 51°13.62 2°56.022 113.2 3.8 293 4.9
2007-07-04 06:47:03 51°13.622 2°56.014 113.2 3.9 293 -999
2007-07-04 06:47:08 51°13.624 2°56.006 113.3 4 293 -999
2007-07-04 06:47:13 51°13.627 2°55.997 113.5 4.1 293 -999
2007-07-04 06:47:18 51°13.629 2°55.989 113.6 4.2 293 -999
2007-07-04 06:47:23 51°13.631 2°55.98 113.9 4.2 293 -999
2007-07-04 06:47:28 51°13.633 2°55.972 114.2 4.2 294 -999
2007-07-04 06:47:33 51°13.636 2°55.963 114.9 4.3 295 -999
2007-07-04 06:47:38 51°13.638 2°55.955 116.1 4.3 297 -999
2007-07-04 06:47:43 51°13.641 2°55.946 117.1 4.4 299 -999
2007-07-04 06:47:48 51°13.645 2°55.938 118.1 4.5 300 -999
2007-07-04 06:47:53 51°13.648 2°55.929 118.4 4.5 300 -999
2007-07-04 06:47:58 51°13.651 2°55.92 117.8 4.5 300 -999
2007-07-04 06:48:03 51°13.654 2°55.912 116.6 4.3 299 -999
2007-07-04 06:48:08 51°13.656 2°55.904 114.7 4.2 297 -999
2007-07-04 06:48:13 51°13.659 2°55.896 112.9 4 296 -999
2007-07-04 06:48:18 51°13.661 2°55.888 111.2 4 294 -999
2007-07-04 06:48:23 51°13.663 2°55.88 110 4 294 -999
2007-07-04 06:48:28 51°13.665 2°55.872 109.2 4 292 11
2007-07-04 06:48:33 51°13.667 2°55.864 108.2 3.9 291 11
2007-07-04 06:48:38 51°13.669 2°55.856 107.4 3.8 289 -999
2007-07-04 06:48:43 51°13.671 2°55.848 105.3 3.7 288 -999
2007-07-04 06:48:48 51°13.672 2°55.84 103.9 3.6 286 -999
2007-07-04 06:48:53 51°13.673 2°55.833 102.8 3.4 285 -999
2007-07-04 06:48:58 51°13.674 2°55.826 102 3.3 284 -999
2007-07-04 06:49:03 51°13.675 2°55.819 101.3 3.2 283 -999
2007-07-04 06:49:08 51°13.676 2°55.812 100.1 3.2 282 10.8
2007-07-04 06:49:13 51°13.677 2°55.805 99 3.2 282 10.6
2007-07-04 06:49:18 51°13.678 2°55.798 97.8 3.1 279 10.4
2007-07-04 06:49:23 51°13.679 2°55.792 96.4 3 279 10.3
2007-07-04 06:49:28 51°13.679 2°55.785 94.9 2.9 277 -999
2007-07-04 06:49:33 51°13.68 2°55.779 93.1 2.8 277 -999
2007-07-04 06:49:38 51°13.68 2°55.774 91.7 2.7 275 10.7
2007-07-04 06:49:43 51°13.68 2°55.768 90.4 2.6 274 10.8
2007-07-04 06:49:48 51°13.68 2°55.762 89 2.5 272 11
2007-07-04 06:49:53 51°13.68 2°55.757 88 2.4 272 10.8
2007-07-04 06:49:58 51°13.68 2°55.752 86.8 2.3 270 10.7
2007-07-04 06:50:03 51°13.68 2°55.747 85.2 2.2 270 10.5
2007-07-04 06:50:08 51°13.68 2°55.743 84.1 2 269 10.8
2007-07-04 06:50:13 51°13.68 2°55.739 83.2 1.5 271 11.3
2007-07-04 06:50:18 51°13.68 2°55.737 81.7 0.7 284 11.4
2007-07-04 06:50:23 51°13.681 2°55.738 78.7 0.4 18 11.3
2007-07-04 06:50:28 51°13.682 2°55.738 73.5 0.5 26 11.3
2007-07-04 06:50:33 51°13.682 2°55.739 66.5 0.5 24 11.2
2007-07-04 06:50:38 51°13.683 2°55.739 60.7 0.3 353 11.3
2007-07-04 06:50:43 51°13.683 2°55.738 56.5 0.3 258 11.2
2007-07-04 06:50:47 51°13.682 2°55.737 52.6 0.7 244 11.2
2007-07-04 06:50:53 51°13.681 2°55.735 48.8 1 235 11.1
2007-07-04 06:50:58 51°13.681 2°55.733 45.7 1 235 11
2007-07-04 06:51:03 51°13.68 2°55.731 43.1 0.9 230 10.9
2007-07-04 06:51:07 51°13.679 2°55.73 40.7 0.9 231 10.8
2007-07-04 06:51:13 51°13.679 2°55.729 38.5 0.7 235 10.8
2007-07-04 06:51:18 51°13.679 2°55.728 35.9 0.2 294 -999
2007-07-04 06:51:23 51°13.679 2°55.728 31 0.6 2 -999
2007-07-04 06:51:28 51°13.681 2°55.729 24.2 1.2 6 -999
2007-07-04 06:51:33 51°13.683 2°55.729 17.5 1.7 9 -999
2007-07-04 06:51:38 51°13.686 2°55.729 11 1.8 358 11.2
2007-07-04 06:51:43 51°13.689 2°55.729 6.8 1.9 356 11.3
2007-07-04 06:51:48 51°13.691 2°55.728 1.9 1.9 350 11.4
2007-07-04 06:51:52 51°13.693 2°55.727 356.7 1.9 348 11.8
2007-07-04 06:51:58 51°13.697 2°55.725 352.3 2.2 341 12.1
2007-07-04 06:52:03 51°13.7 2°55.723 348.3 2.9 340 12.8
2007-07-04 06:52:08 51°13.705 2°55.72 344.6 3.8 336 12.9
2007-07-04 06:52:13 51°13.711 2°55.715 341.1 4.6 334 12.8
2007-07-04 06:52:18 51°13.717 2°55.71 339 5.3 333 12.1
2007-07-04 06:52:23 51°13.725 2°55.704 338.6 5.9 334 12.2
2007-07-04 06:52:28 51°13.733 2°55.697 338.6 6.5 333 11.7
2007-07-04 06:52:33 51°13.742 2°55.691 338.5 7 334 11.7
2007-07-04 06:52:38 51°13.751 2°55.684 338.8 7.4 335 11.6
2007-07-04 06:52:43 51°13.761 2°55.677 339.3 7.7 335 11.5
2007-07-04 06:52:48 51°13.771 2°55.669 339.5 8.1 335 11.5
2007-07-04 06:52:53 51°13.781 2°55.661 339.3 8.4 336 11.4
2007-07-04 06:52:58 51°13.792 2°55.653 339.7 8.6 336 11.4
2007-07-04 06:53:03 51°13.803 2°55.645 340.1 8.8 335 11.6
2007-07-04 06:53:07 51°13.812 2°55.639 339.7 9 336 11.7
2007-07-04 06:53:13 51°13.826 2°55.629 339.7 9.1 336 11.5
2007-07-04 06:53:18 51°13.838 2°55.621 340.4 9.3 337 11.4
2007-07-04 06:53:23 51°13.85 2°55.612 341 9.4 336 11.1
2007-07-04 06:53:27 51°13.86 2°55.606 340.8 9.5 337 11
2007-07-04 06:53:32 51°13.872 2°55.597 340.9 9.6 337 11
2007-07-04 06:53:38 51°13.887 2°55.587 341 9.7 337 11.2
2007-07-04 06:53:43 51°13.899 2°55.578 340.4 9.7 337 11.3
2007-07-04 06:53:48 51°13.912 2°55.57 340.4 9.7 337 11.1
2007-07-04 06:53:52 51°13.922 2°55.563 340.6 9.8 337 11.2
2007-07-04 06:53:58 51°13.937 2°55.553 340.6 9.8 336 11.3
2007-07-04 06:54:03 51°13.949 2°55.544 340.1 9.8 337 11.2
2007-07-04 06:54:08 51°13.962 2°55.535 339.8 9.8 337 11.1
2007-07-04 06:54:13 51°13.974 2°55.527 340 9.9 337 10.9
2007-07-04 06:54:18 51°13.987 2°55.518 340.4 9.7 337 10.9
2007-07-04 06:54:23 51°13.999 2°55.511 340.8 9.3 338 11
2007-07-04 06:54:28 51°14.01 2°55.503 341.2 8.9 338 -999
2007-07-04 06:54:33 51°14.021 2°55.496 341.2 8.6 337 10.9
2007-07-04 06:54:38 51°14.032 2°55.488 340.6 8.3 337 10.8
2007-07-04 06:54:43 51°14.042 2°55.481 340.4 8.1 336 -999
2007-07-04 06:54:48 51°14.052 2°55.474 339.8 7.9 336 -999
2007-07-04 06:54:53 51°14.062 2°55.467 339.5 7.7 335 -999
2007-07-04 06:54:58 51°14.072 2°55.46 338.9 7.9 335 -999
2007-07-04 06:55:03 51°14.082 2°55.452 338.2 8.1 334 10.9
2007-07-04 06:55:08 51°14.092 2°55.444 337.9 8.2 334 -999
2007-07-04 06:55:13 51°14.103 2°55.436 337.6 8.3 334 -999
2007-07-04 06:55:18 51°14.113 2°55.428 337.5 8.5 334 10.9
2007-07-04 06:55:23 51°14.124 2°55.419 337.5 8.5 334 10.9
2007-07-04 06:55:28 51°14.134 2°55.411 337.3 8.6 333 -999
2007-07-04 06:55:33 51°14.145 2°55.401 336.4 8.7 331 10.8
2007-07-04 06:55:38 51°14.155 2°55.392 335.3 8.7 330 10.8
2007-07-04 06:55:43 51°14.166 2°55.382 333.8 8.7 328 -999
2007-07-04 06:55:48 51°14.176 2°55.371 331.5 8.8 326 -999
2007-07-04 06:55:53 51°14.186 2°55.36 328.8 8.7 324 -999
2007-07-04 06:55:58 51°14.195 2°55.348 327.1 8.7 323 -999
2007-07-04 06:56:03 51°14.205 2°55.336 325.2 9 321 -999
2007-07-04 06:56:08 51°14.215 2°55.323 323.6 9.3 320 -999
2007-07-04 06:56:13 51°14.225 2°55.309 323.1 9.6 320 -999
2007-07-04 06:56:18 51°14.236 2°55.295 323.3 9.9 320 10.8
2007-07-04 06:56:23 51°14.246 2°55.28 322.8 10.1 318 -999
2007-07-04 06:56:28 51°14.256 2°55.264 321.5 10.2 317 10.8
2007-07-04 06:56:33 51°14.267 2°55.249 321.1 10.4 317 10.8
2007-07-04 06:56:38 51°14.277 2°55.232 320.8 10.5 315 10.7
2007-07-04 06:56:43 51°14.287 2°55.215 319.4 10.6 313 10.8
2007-07-04 06:56:48 51°14.297 2°55.198 318 10.7 313 10.8
2007-07-04 06:56:53 51°14.307 2°55.18 317.1 10.8 312 10.8
2007-07-04 06:56:58 51°14.318 2°55.163 316.5 10.8 312 10.9
2007-07-04 06:57:03 51°14.328 2°55.145 316.3 10.9 312 10.9
2007-07-04 06:57:08 51°14.338 2°55.127 315.9 10.9 312 10.9
2007-07-04 06:57:13 51°14.348 2°55.108 315.4 11 310 11.1
2007-07-04 06:57:18 51°14.357 2°55.09 313.9 10.9 310 11
2007-07-04 06:57:23 51°14.367 2°55.071 313.5 10.9 309 11
2007-07-04 06:57:28 51°14.376 2°55.053 313.5 10.9 308 11
2007-07-04 06:57:33 51°14.385 2°55.033 312 10.8 306 11
2007-07-04 06:57:38 51°14.393 2°55.014 309.9 10.8 305 11
2007-07-04 06:57:43 51°14.402 2°54.993 308.4 10.8 303 11.1
2007-07-04 06:57:48 51°14.409 2°54.973 306.9 10.8 300 10.9
2007-07-04 06:57:53 51°14.416 2°54.951 304.8 11.1 298 11.1
2007-07-04 06:57:58 51°14.423 2°54.928 302.8 11.3 294 11.1
2007-07-04 06:58:03 51°14.428 2°54.904 299.7 11.5 291 11.2
2007-07-04 06:58:07 51°14.432 2°54.884 295.8 11.7 287 11.1
2007-07-04 06:58:12 51°14.437 2°54.859 292.4 11.9 286 10.8
2007-07-04 06:58:18 51°14.441 2°54.828 290.3 12.1 283 11
2007-07-04 06:58:23 51°14.444 2°54.802 288.2 12.2 280 11
2007-07-04 06:58:27 51°14.446 2°54.78 285.9 12.3 278 11.1
2007-07-04 06:58:33 51°14.448 2°54.748 283.1 12.3 275 10.8
2007-07-04 06:58:38 51°14.449 2°54.721 280.5 12.4 273 11
2007-07-04 06:58:43 51°14.449 2°54.693 278 12.4 270 10.9
2007-07-04 06:58:48 51°14.449 2°54.665 275.8 12.5 267 11.1
2007-07-04 06:58:53 51°14.447 2°54.638 272.8 12.5 265 10.8
2007-07-04 06:58:58 51°14.444 2°54.611 269.9 12.5 261 10.9
2007-07-04 06:59:03 51°14.441 2°54.584 266.4 12.4 258 10.8
2007-07-04 06:59:08 51°14.436 2°54.557 263.7 12.5 256 11
2007-07-04 06:59:13 51°14.432 2°54.531 260.7 12.5 255 10.8
2007-07-04 06:59:18 51°14.427 2°54.505 259.4 12.5 253 10.7
2007-07-04 06:59:23 51°14.421 2°54.479 257.6 12.5 250 10.8
2007-07-04 06:59:28 51°14.414 2°54.453 254.4 12.5 247 10.7
2007-07-04 06:59:33 51°14.406 2°54.428 251.5 12.5 244 9.7
2007-07-04 06:59:38 51°14.398 2°54.405 248.6 12 241 9.4
2007-07-04 06:59:43 51°14.39 2°54.384 246.2 11.3 239 9.5
2007-07-04 06:59:47 51°14.384 2°54.367 243.2 11.1 239 9.2
2007-07-04 06:59:53 51°14.374 2°54.343 242.1 10.7 237 9
2007-07-04 06:59:58 51°14.366 2°54.323 241.5 10.7 238 9.4
2007-07-04 07:00:03 51°14.358 2°54.302 241.3 10.9 238 9.3
2007-07-04 07:00:07 51°14.351 2°54.285 241.6 11.3 238 9.1
2007-07-04 07:00:13 51°14.341 2°54.259 241.9 11.6 239 9.2
2007-07-04 07:00:18 51°14.333 2°54.237 242.4 11.8 240 9.2
2007-07-04 07:00:23 51°14.324 2°54.214 243.1 12.1 239 9.3
2007-07-04 07:00:28 51°14.316 2°54.19 243.1 12.2 240 9.2
2007-07-04 07:00:33 51°14.307 2°54.167 243.8 12.4 239 9.2
2007-07-04 07:00:38 51°14.299 2°54.143 243.6 12.5 240 9.2
2007-07-04 07:00:43 51°14.29 2°54.119 243.3 12.6 240 8.9
2007-07-04 07:00:48 51°14.281 2°54.094 243.8 12.7 241 9
2007-07-04 07:00:52 51°14.274 2°54.075 244.2 12.7 240 8.9
2007-07-04 07:00:58 51°14.263 2°54.046 243.8 12.7 239 8.9
2007-07-04 07:01:03 51°14.255 2°54.021 243.8 12.8 240 9.1
2007-07-04 07:01:08 51°14.246 2°53.997 243.6 12.8 240 9
2007-07-04 07:01:13 51°14.237 2°53.972 243.8 12.8 240 8.9
2007-07-04 07:01:18 51°14.228 2°53.948 243.9 12.7 240 8.8
2007-07-04 07:01:23 51°14.219 2°53.923 244.5 12.7 239 9
2007-07-04 07:01:28 51°14.211 2°53.899 244 12.7 240 8.8
2007-07-04 07:01:33 51°14.202 2°53.875 244.2 12.7 240 9
2007-07-04 07:01:38 51°14.194 2°53.85 244.2 12.6 240 8.9
2007-07-04 07:01:43 51°14.184 2°53.826 244.1 12.7 239 9.2
2007-07-04 07:01:48 51°14.175 2°53.803 243.9 12.5 238 8.8
2007-07-04 07:01:53 51°14.166 2°53.779 243.4 12.6 240 9.1
2007-07-04 07:01:58 51°14.157 2°53.755 243.5 12.7 240 9.1
2007-07-04 07:02:03 51°14.149 2°53.73 243.8 12.6 242 9
2007-07-04 07:02:08 51°14.141 2°53.706 245 12.7 241 9.2
2007-07-04 07:02:13 51°14.133 2°53.681 245.4 12.7 243 9.1
2007-07-04 07:02:18 51°14.124 2°53.656 246.3 12.6 241 9.1
2007-07-04 07:02:23 51°14.116 2°53.631 246.3 12.7 243 9.4
2007-07-04 07:02:27 51°14.109 2°53.612 246.6 12.7 242 9.1
2007-07-04 07:02:33 51°14.099 2°53.583 246 12.4 243 8.8
2007-07-04 07:02:38 51°14.091 2°53.558 246.7 12.6 243 9.1
2007-07-04 07:02:43 51°14.083 2°53.533 246.6 12.5 243 9.1
2007-07-04 07:02:47 51°14.076 2°53.514 246.7 12.6 241 9.4
2007-07-04 07:02:52 51°14.068 2°53.49 245.5 12.5 242 9.1
2007-07-04 07:02:58 51°14.058 2°53.46 245.8 12.6 242 9.3
2007-07-04 07:03:03 51°14.05 2°53.436 246 12.6 242 9.3
2007-07-04 07:03:08 51°14.042 2°53.411 246.3 12.5 241 9.6
2007-07-04 07:03:13 51°14.033 2°53.387 246.3 12.6 241 9.7
2007-07-04 07:03:18 51°14.025 2°53.362 246.1 12.7 243 9.7
2007-07-04 07:03:23 51°14.017 2°53.337 245.9 12.8 243 9.7
2007-07-04 07:03:28 51°14.008 2°53.312 246.5 12.8 241 9.6
2007-07-04 07:03:33 51°14 2°53.287 246.3 12.8 242 9.4
2007-07-04 07:03:38 51°13.992 2°53.262 246 12.8 242 9.6
2007-07-04 07:03:43 51°13.983 2°53.237 246.4 12.8 241 9.7
2007-07-04 07:03:48 51°13.975 2°53.212 246 12.9 242 9.6
2007-07-04 07:03:53 51°13.966 2°53.187 246 12.8 242 9.7
2007-07-04 07:03:58 51°13.958 2°53.162 246.2 12.8 241 9.5
2007-07-04 07:04:03 51°13.949 2°53.137 246 12.9 242 9.8
2007-07-04 07:04:08 51°13.941 2°53.112 246.2 12.9 241 9.6
2007-07-04 07:04:13 51°13.932 2°53.088 246.6 12.7 240 9.4
2007-07-04 07:04:18 51°13.924 2°53.063 246 12.8 241 9.7
2007-07-04 07:04:23 51°13.915 2°53.039 245.8 12.6 241 9.4
2007-07-04 07:04:27 51°13.908 2°53.019 245.6 12.7 242 9.7
2007-07-04 07:04:33 51°13.898 2°52.989 246 12.8 242 9.9
2007-07-04 07:04:38 51°13.89 2°52.964 246.1 12.8 241 9.7
2007-07-04 07:04:43 51°13.881 2°52.94 246.2 12.8 241 10
2007-07-04 07:04:48 51°13.873 2°52.915 246.3 12.8 241 10.1
2007-07-04 07:04:52 51°13.866 2°52.895 246.1 12.7 242 9.8
2007-07-04 07:04:58 51°13.856 2°52.866 246.6 12.7 241 9.9
2007-07-04 07:05:03 51°13.847 2°52.841 245.8 12.7 242 9.8
2007-07-04 07:05:08 51°13.839 2°52.816 246.2 12.8 242 10
2007-07-04 07:05:12 51°13.832 2°52.796 246.5 12.9 242 9.9
2007-07-04 07:05:18 51°13.822 2°52.766 246.7 12.8 241 9.7
2007-07-04 07:05:23 51°13.813 2°52.742 246.2 12.8 241 9.8
2007-07-04 07:05:28 51°13.805 2°52.716 245.5 12.9 242 10.1
2007-07-04 07:05:33 51°13.796 2°52.692 246.5 12.8 240 9.8
2007-07-04 07:05:38 51°13.788 2°52.667 245.7 12.8 242 9.7
2007-07-04 07:05:43 51°13.779 2°52.643 246.6 12.7 240 9.7
2007-07-04 07:05:48 51°13.771 2°52.618 245.3 12.8 242 10
2007-07-04 07:05:53 51°13.762 2°52.593 246.2 12.7 241 10
2007-07-04 07:05:58 51°13.753 2°52.568 246 12.9 241 10.2
2007-07-04 07:06:03 51°13.745 2°52.543 245.9 12.8 243 9.8
2007-07-04 07:06:08 51°13.737 2°52.519 246.6 12.7 241 9.9
2007-07-04 07:06:13 51°13.728 2°52.493 246.1 12.8 243 10.1
2007-07-04 07:06:18 51°13.72 2°52.469 246.8 12.8 241 9.9
2007-07-04 07:06:23 51°13.711 2°52.444 247.2 12.8 241 10
2007-07-04 07:06:28 51°13.703 2°52.42 246.2 12.7 241 9.9
2007-07-04 07:06:33 51°13.694 2°52.395 246.1 12.8 241 10.1
2007-07-04 07:06:38 51°13.686 2°52.37 246.2 12.8 242 10.2
2007-07-04 07:06:43 51°13.677 2°52.345 246.7 12.8 242 10.2
2007-07-04 07:06:48 51°13.669 2°52.32 246.8 12.7 240 10.2
2007-07-04 07:06:53 51°13.66 2°52.296 246.6 12.7 241 10.3
2007-07-04 07:06:58 51°13.651 2°52.272 245.7 12.7 240 10.2
2007-07-04 07:07:03 51°13.643 2°52.247 246 12.6 242 10.1
2007-07-04 07:07:07 51°13.636 2°52.227 245.8 12.8 241 10.3
2007-07-04 07:07:13 51°13.626 2°52.197 246.1 12.8 242 10.3
2007-07-04 07:07:18 51°13.617 2°52.173 246.4 12.8 241 10.3
2007-07-04 07:07:23 51°13.609 2°52.147 246.3 12.9 242 10.4
2007-07-04 07:07:28 51°13.6 2°52.122 246.4 12.9 240 10.2
2007-07-04 07:07:33 51°13.592 2°52.097 246.1 13 242 10.4
2007-07-04 07:07:38 51°13.583 2°52.072 246.6 12.9 241 10.1
2007-07-04 07:07:43 51°13.575 2°52.047 246.4 12.9 241 10.3
2007-07-04 07:07:48 51°13.566 2°52.022 246 12.9 241 10.4
2007-07-04 07:07:52 51°13.559 2°52.002 246.4 12.8 240 10.2
2007-07-04 07:07:58 51°13.548 2°51.973 245.6 12.8 241 10.1
2007-07-04 07:08:03 51°13.54 2°51.948 245.8 12.7 241 10
2007-07-04 07:08:08 51°13.531 2°51.924 245.9 12.7 241 10.2
2007-07-04 07:08:13 51°13.523 2°51.899 246.2 12.9 242 10.3
2007-07-04 07:08:18 51°13.514 2°51.874 246.5 12.9 241 10.2
2007-07-04 07:08:23 51°13.506 2°51.849 246.2 12.9 243 10.3
2007-07-04 07:08:28 51°13.497 2°51.825 246.7 13 241 10.1
2007-07-04 07:08:33 51°13.489 2°51.799 246.1 13 243 10.3
2007-07-04 07:08:38 51°13.48 2°51.774 246.7 12.9 242 10.2
2007-07-04 07:08:43 51°13.472 2°51.748 246.9 13 243 10.5
2007-07-04 07:08:48 51°13.464 2°51.722 246.8 13 242 10.4
2007-07-04 07:08:53 51°13.456 2°51.698 247.1 12.8 242 10.3
2007-07-04 07:08:58 51°13.447 2°51.673 246.8 12.9 242 10.4
2007-07-04 07:09:03 51°13.439 2°51.647 246.7 13 242 10.3
2007-07-04 07:09:08 51°13.43 2°51.622 246.6 12.9 242 10.4
2007-07-04 07:09:13 51°13.422 2°51.596 246.8 13 242 10.4
2007-07-04 07:09:18 51°13.414 2°51.57 246.5 13 242 10.4
2007-07-04 07:09:23 51°13.405 2°51.545 246.8 13.1 242 10.4
2007-07-04 07:09:28 51°13.397 2°51.52 246.9 13 242 10.3
2007-07-04 07:09:32 51°13.39 2°51.499 246.9 13.1 242 10.4
2007-07-04 07:09:38 51°13.379 2°51.469 246.7 13.1 242 10.5
2007-07-04 07:09:43 51°13.371 2°51.444 246.8 13 242 10.3
2007-07-04 07:09:48 51°13.362 2°51.418 246.2 13.1 243 10.5
2007-07-04 07:09:52 51°13.356 2°51.398 246.7 13 241 10.2
2007-07-04 07:09:58 51°13.345 2°51.368 246.4 13 241 10.5
2007-07-04 07:10:03 51°13.336 2°51.342 246.5 13 241 10.3
2007-07-04 07:10:08 51°13.328 2°51.317 246 13 241 10.1
2007-07-04 07:10:13 51°13.319 2°51.292 245.9 12.9 241 10.2
2007-07-04 07:10:18 51°13.31 2°51.267 246.3 13 241 10.6
2007-07-04 07:10:23 51°13.301 2°51.242 245.9 13 241 10.1
2007-07-04 07:10:28 51°13.293 2°51.216 245.8 13 242 10.3
2007-07-04 07:10:33 51°13.285 2°51.191 246.3 13 242 10.5
2007-07-04 07:10:38 51°13.276 2°51.165 246.7 13.1 242 10.6
2007-07-04 07:10:43 51°13.268 2°51.14 246.9 13.1 241 10.5
2007-07-04 07:10:48 51°13.259 2°51.114 246.4 13.1 241 10.4
2007-07-04 07:10:53 51°13.25 2°51.089 246 13.1 242 10.6
2007-07-04 07:10:58 51°13.242 2°51.064 245.9 13 242 10.5
2007-07-04 07:11:03 51°13.233 2°51.038 246.3 13.1 241 10.6
2007-07-04 07:11:08 51°13.225 2°51.013 245.9 12.9 242 10.7
2007-07-04 07:11:13 51°13.216 2°50.988 246.4 13 241 10.8
2007-07-04 07:11:18 51°13.207 2°50.962 246 13.1 242 10.6
2007-07-04 07:11:23 51°13.199 2°50.937 246.6 13 241 10.8
2007-07-04 07:11:28 51°13.19 2°50.912 246.5 12.9 240 10.6
2007-07-04 07:11:33 51°13.181 2°50.887 245.8 13 242 10.8
2007-07-04 07:11:38 51°13.173 2°50.862 245.9 13 242 10.6
2007-07-04 07:11:43 51°13.164 2°50.836 246.1 13 242 10.7
2007-07-04 07:11:48 51°13.155 2°50.811 246.3 13.1 242 10.6
2007-07-04 07:11:53 51°13.147 2°50.786 246.2 13.1 242 10.6
2007-07-04 07:11:58 51°13.138 2°50.76 246.7 13.1 241 10.5
2007-07-04 07:12:03 51°13.13 2°50.734 246.3 13.1 243 10.7
2007-07-04 07:12:08 51°13.121 2°50.709 247.1 13.1 241 10.6
2007-07-04 07:12:12 51°13.115 2°50.688 246.4 13.2 242 10.8
2007-07-04 07:12:18 51°13.104 2°50.658 246.3 13.1 241 10.5
2007-07-04 07:12:23 51°13.095 2°50.633 246.3 13.1 242 10.5
2007-07-04 07:12:28 51°13.087 2°50.607 246 13.1 241 10.7
2007-07-04 07:12:32 51°13.08 2°50.587 246.1 13 242 10.7
2007-07-04 07:12:38 51°13.07 2°50.557 246.4 13 241 10.8
2007-07-04 07:12:43 51°13.061 2°50.532 246.4 13 241 10.8
2007-07-04 07:12:48 51°13.052 2°50.507 246.2 13 241 10.8
2007-07-04 07:12:53 51°13.044 2°50.481 246 13 241 10.9
2007-07-04 07:12:58 51°13.035 2°50.456 245.9 13 241 11
2007-07-04 07:13:03 51°13.026 2°50.431 246.2 12.9 240 10.7
2007-07-04 07:13:08 51°13.018 2°50.406 245.7 13 242 10.8
2007-07-04 07:13:13 51°13.009 2°50.381 246 13 241 10.6
2007-07-04 07:13:18 51°13 2°50.355 246 12.9 242 10.7
2007-07-04 07:13:23 51°12.992 2°50.33 246.4 13 241 11
2007-07-04 07:13:28 51°12.983 2°50.305 245.7 13.1 241 10.8
2007-07-04 07:13:33 51°12.974 2°50.28 245.6 12.9 241 10.6
2007-07-04 07:13:38 51°12.966 2°50.255 246.4 13 241 11.2
2007-07-04 07:13:43 51°12.957 2°50.229 245.6 13.1 242 10.8
2007-07-04 07:13:48 51°12.949 2°50.204 246.3 13.1 242 10.8
2007-07-04 07:13:53 51°12.94 2°50.178 246.7 13.1 242 11
2007-07-04 07:13:58 51°12.932 2°50.152 246.8 13.1 242 10.9
2007-07-04 07:14:03 51°12.923 2°50.126 246.7 13.1 243 11
2007-07-04 07:14:07 51°12.916 2°50.106 246.8 13.2 241 11.1
2007-07-04 07:14:12 51°12.908 2°50.08 246.6 13.1 242 11
2007-07-04 07:14:18 51°12.897 2°50.049 246.6 13.1 242 11.1
2007-07-04 07:14:23 51°12.889 2°50.024 246.5 13.2 241 11.1
2007-07-04 07:14:28 51°12.88 2°49.998 246 13.2 242 11.2
2007-07-04 07:14:33 51°12.872 2°49.973 246.2 13.1 242 10.9
2007-07-04 07:14:38 51°12.863 2°49.947 246.4 13.1 242 11.2
2007-07-04 07:14:43 51°12.854 2°49.922 246.5 13.1 241 11
2007-07-04 07:14:48 51°12.845 2°49.897 246.3 13 241 10.9
2007-07-04 07:14:53 51°12.837 2°49.872 245.9 13.2 241 11.1
2007-07-04 07:14:58 51°12.828 2°49.846 245.7 13.1 242 11.1
2007-07-04 07:15:03 51°12.819 2°49.821 246.3 13.1 241 11
2007-07-04 07:15:08 51°12.811 2°49.795 246.5 13.2 242 11.2
2007-07-04 07:15:13 51°12.802 2°49.769 246.5 13.2 242 11.1
2007-07-04 07:15:18 51°12.794 2°49.743 246.6 13.2 242 11
2007-07-04 07:15:23 51°12.785 2°49.717 246.6 13.2 242 11
2007-07-04 07:15:28 51°12.777 2°49.692 246.6 13.2 242 11
2007-07-04 07:15:33 51°12.768 2°49.666 246.7 13.2 241 11.2
2007-07-04 07:15:38 51°12.759 2°49.64 246.5 13.3 242 11.1
2007-07-04 07:15:43 51°12.751 2°49.614 246.4 13.2 242 11
2007-07-04 07:15:47 51°12.744 2°49.594 246.6 13.3 242 11.1
2007-07-04 07:15:53 51°12.733 2°49.563 246.3 13.3 242 11.1
2007-07-04 07:15:58 51°12.725 2°49.537 246.5 13.2 241 11.1
2007-07-04 07:16:03 51°12.716 2°49.512 246.3 13.2 241 11.3
2007-07-04 07:16:08 51°12.707 2°49.486 246.1 13.2 242 11.1
2007-07-04 07:16:13 51°12.698 2°49.461 245.9 13.2 241 11.3
2007-07-04 07:16:18 51°12.689 2°49.435 246.2 13.1 241 11
2007-07-04 07:16:23 51°12.681 2°49.41 245.9 13.1 241 11.1
2007-07-04 07:16:28 51°12.672 2°49.384 246.2 13.2 242 11.1
2007-07-04 07:16:32 51°12.665 2°49.364 246 13.1 242 11.1
2007-07-04 07:16:38 51°12.655 2°49.333 246.4 13.1 242 11.3
2007-07-04 07:16:43 51°12.646 2°49.307 246.8 13.2 242 11.4
2007-07-04 07:16:48 51°12.638 2°49.282 246.4 13.2 242 11.3
2007-07-04 07:16:52 51°12.631 2°49.261 246.6 13.2 242 11.1
2007-07-04 07:16:58 51°12.62 2°49.23 246.6 13.2 241 11.2
2007-07-04 07:17:03 51°12.612 2°49.205 246.7 13.1 241 11.2
2007-07-04 07:17:08 51°12.603 2°49.18 246.2 13 240 11.1
2007-07-04 07:17:13 51°12.594 2°49.155 245.8 13.1 241 11.4
2007-07-04 07:17:18 51°12.585 2°49.13 245.6 13 241 11.4
2007-07-04 07:17:23 51°12.577 2°49.104 245.7 13 242 11.3
2007-07-04 07:17:28 51°12.568 2°49.079 246.1 13.1 242 11.4
2007-07-04 07:17:33 51°12.559 2°49.053 246.2 13.2 241 11.4
2007-07-04 07:17:38 51°12.55 2°49.028 245.8 13.2 241 11.3
2007-07-04 07:17:43 51°12.541 2°49.003 246 13 240 10.9
2007-07-04 07:17:48 51°12.533 2°48.977 245.8 13 242 11.3
2007-07-04 07:17:53 51°12.524 2°48.952 245.8 13.1 241 11.4
2007-07-04 07:17:58 51°12.515 2°48.927 246 13 241 11.2
2007-07-04 07:18:03 51°12.506 2°48.902 245.8 13.1 240 11.5
2007-07-04 07:18:08 51°12.498 2°48.877 245.9 12.9 241 11.2
2007-07-04 07:18:13 51°12.489 2°48.852 245.7 12.9 242 11.4
2007-07-04 07:18:18 51°12.481 2°48.827 246.2 13 241 11.5
2007-07-04 07:18:23 51°12.472 2°48.801 246.1 13 242 11.2
2007-07-04 07:18:27 51°12.465 2°48.781 246.2 13.1 241 11.4
2007-07-04 07:18:33 51°12.455 2°48.751 246 13 242 11.2
2007-07-04 07:18:38 51°12.446 2°48.726 246.4 13.1 242 11.6
2007-07-04 07:18:43 51°12.438 2°48.7 246 13.1 242 11.6
2007-07-04 07:18:48 51°12.429 2°48.675 246.2 13.1 241 11.4
2007-07-04 07:18:53 51°12.421 2°48.649 245.9 13 242 11.4
2007-07-04 07:18:58 51°12.412 2°48.624 246.2 13 240 11.5
2007-07-04 07:19:03 51°12.403 2°48.599 246 13 241 11.4
2007-07-04 07:19:08 51°12.394 2°48.574 245.9 12.9 240 11.3
2007-07-04 07:19:13 51°12.386 2°48.549 245.8 13 241 11.6
2007-07-04 07:19:18 51°12.377 2°48.525 245.8 12.8 240 11.2
2007-07-04 07:19:23 51°12.368 2°48.5 245.7 12.9 241 11.5
2007-07-04 07:19:28 51°12.36 2°48.474 245.5 12.9 241 11.3
2007-07-04 07:19:33 51°12.351 2°48.45 245.9 13 241 11.4
2007-07-04 07:19:38 51°12.342 2°48.424 246.2 13 241 11.4
2007-07-04 07:19:43 51°12.333 2°48.399 246 13 242 11.4
2007-07-04 07:19:48 51°12.325 2°48.374 245.8 13.1 242 11.6
2007-07-04 07:19:53 51°12.316 2°48.348 246.5 13.2 242 11.5
2007-07-04 07:19:58 51°12.308 2°48.322 246.6 13.1 243 11.3
2007-07-04 07:20:03 51°12.3 2°48.297 246.8 13.1 242 11.4
2007-07-04 07:20:08 51°12.291 2°48.271 246.5 13.2 242 11.6
2007-07-04 07:20:13 51°12.282 2°48.246 246.5 13 242 11.3
2007-07-04 07:20:18 51°12.273 2°48.22 246.8 13 241 11.5
2007-07-04 07:20:23 51°12.265 2°48.195 245.9 13 242 11.3
2007-07-04 07:20:28 51°12.257 2°48.169 246.1 13.1 242 11.4
2007-07-04 07:20:33 51°12.248 2°48.144 246.4 13.1 242 11.4
2007-07-04 07:20:38 51°12.239 2°48.118 246.3 13.1 242 11.6
2007-07-04 07:20:43 51°12.231 2°48.092 246.3 13.2 242 11.6
2007-07-04 07:20:48 51°12.222 2°48.066 246.2 13.1 242 11.3
2007-07-04 07:20:53 51°12.214 2°48.041 246.5 13.1 242 11.6
2007-07-04 07:20:58 51°12.205 2°48.015 246.3 13.2 242 11.6
2007-07-04 07:21:03 51°12.196 2°47.99 246.5 13.1 241 11.6
2007-07-04 07:21:08 51°12.188 2°47.964 246.3 13.1 242 11.5
2007-07-04 07:21:12 51°12.181 2°47.944 245.8 13.1 242 11.3
2007-07-04 07:21:18 51°12.171 2°47.914 246.7 13 242 11.3
2007-07-04 07:21:23 51°12.162 2°47.888 246.7 13 242 11.7
2007-07-04 07:21:28 51°12.153 2°47.864 246.5 13 241 11.3
2007-07-04 07:21:33 51°12.145 2°47.838 246.3 13 241 11.6
2007-07-04 07:21:38 51°12.136 2°47.813 245.9 13 242 11.4
2007-07-04 07:21:43 51°12.127 2°47.788 246.2 13.1 242 11.4
2007-07-04 07:21:48 51°12.119 2°47.762 246 13.1 242 11.3
2007-07-04 07:21:53 51°12.11 2°47.737 246.5 13 241 11.5
2007-07-04 07:21:58 51°12.102 2°47.711 246.5 13.1 241 11.7
2007-07-04 07:22:03 51°12.094 2°47.685 245.9 13.1 242 11.3
2007-07-04 07:22:08 51°12.085 2°47.659 246.2 13.2 242 11.5
2007-07-04 07:22:13 51°12.077 2°47.634 246.4 13.2 242 11.6
2007-07-04 07:22:18 51°12.068 2°47.608 246.5 13.1 242 11.4
2007-07-04 07:22:23 51°12.059 2°47.583 246.5 13.1 242 11.5
2007-07-04 07:22:28 51°12.051 2°47.557 246.5 13.2 242 11.6
2007-07-04 07:22:33 51°12.042 2°47.532 246.7 13.2 242 11.5
2007-07-04 07:22:38 51°12.033 2°47.506 246.2 13.3 241 11.3
2007-07-04 07:22:43 51°12.024 2°47.48 246 13.2 242 11.3
2007-07-04 07:22:47 51°12.017 2°47.46 246.2 13.2 242 11.4
2007-07-04 07:22:53 51°12.007 2°47.429 246.4 13.2 242 11.3
2007-07-04 07:22:58 51°11.999 2°47.403 246.4 13.3 242 11.4
2007-07-04 07:23:03 51°11.99 2°47.377 246.7 13.1 243 11.2
2007-07-04 07:23:08 51°11.981 2°47.352 246.8 13.2 241 11.5
2007-07-04 07:23:13 51°11.973 2°47.326 246.4 13.2 242 11.4
2007-07-04 07:23:18 51°11.964 2°47.301 246 13.2 242 11.3
2007-07-04 07:23:23 51°11.956 2°47.275 246.7 13.1 243 11.3
2007-07-04 07:23:28 51°11.948 2°47.249 246.6 13.1 242 11.3
2007-07-04 07:23:33 51°11.94 2°47.223 246.7 13.1 245 11.4
2007-07-04 07:23:38 51°11.932 2°47.197 247.8 13.2 245 11.3
2007-07-04 07:23:43 51°11.925 2°47.17 248.9 13.2 247 11.3
2007-07-04 07:23:48 51°11.917 2°47.144 249.8 13.2 245 11.5
2007-07-04 07:23:52 51°11.911 2°47.122 250.1 13.2 247 11.5
2007-07-04 07:23:58 51°11.902 2°47.09 250.5 13.2 246 11.6
2007-07-04 07:24:03 51°11.896 2°47.063 251.1 13.2 249 11.4
2007-07-04 07:24:08 51°11.889 2°47.036 251.8 13.1 248 11.4
2007-07-04 07:24:13 51°11.882 2°47.009 252.8 13.2 249 11.6
2007-07-04 07:24:18 51°11.876 2°46.982 253.3 13.2 249 11.6
2007-07-04 07:24:23 51°11.869 2°46.954 253.5 13.2 250 11.4
2007-07-04 07:24:28 51°11.863 2°46.927 254 13.1 249 11.5
2007-07-04 07:24:33 51°11.856 2°46.9 253.8 13.2 249 11.7
2007-07-04 07:24:38 51°11.85 2°46.872 253.8 13.2 250 11.5
2007-07-04 07:24:43 51°11.844 2°46.845 253.8 13.2 250 11.5
2007-07-04 07:24:48 51°11.837 2°46.818 253.9 13.3 249 11.6
2007-07-04 07:24:53 51°11.83 2°46.791 254 13.1 248 11.4
2007-07-04 07:24:58 51°11.823 2°46.764 253.3 13.2 249 11.7
2007-07-04 07:25:03 51°11.817 2°46.737 253.2 13.2 249 11.6
2007-07-04 07:25:08 51°11.811 2°46.709 253.5 13.2 249 11.8
2007-07-04 07:25:13 51°11.804 2°46.682 253.3 13.2 249 11.4
2007-07-04 07:25:18 51°11.797 2°46.655 253.4 13.3 249 11.6
2007-07-04 07:25:23 51°11.791 2°46.627 253.5 13.3 250 11.6
2007-07-04 07:25:28 51°11.784 2°46.6 253.8 13.2 249 11.5
2007-07-04 07:25:33 51°11.778 2°46.573 253.7 13.3 250 11.8
2007-07-04 07:25:38 51°11.771 2°46.546 253.7 13.3 248 11.6
2007-07-04 07:25:43 51°11.765 2°46.518 253.4 13.3 250 11.8
2007-07-04 07:25:48 51°11.758 2°46.491 253.8 13.3 249 11.8
2007-07-04 07:25:53 51°11.752 2°46.463 253.8 13.3 250 11.7
2007-07-04 07:25:58 51°11.745 2°46.437 254 13 247 11.7
2007-07-04 07:26:03 51°11.738 2°46.41 253.5 13.1 248 12
2007-07-04 07:26:08 51°11.731 2°46.383 253 13.1 249 11.7
2007-07-04 07:26:13 51°11.725 2°46.356 252.6 13.1 250 11.7
2007-07-04 07:26:18 51°11.718 2°46.329 253.4 13.2 249 11.9
2007-07-04 07:26:23 51°11.712 2°46.302 253.3 13.1 249 11.7
2007-07-04 07:26:28 51°11.705 2°46.275 253.8 13.2 248 12.2
2007-07-04 07:26:33 51°11.699 2°46.247 253.4 13.2 249 11.8
2007-07-04 07:26:38 51°11.692 2°46.22 253 13.1 249 11.6
2007-07-04 07:26:43 51°11.685 2°46.194 253.5 13.2 249 11.7
2007-07-04 07:26:48 51°11.679 2°46.166 253.3 13.2 250 11.8
2007-07-04 07:26:53 51°11.672 2°46.139 253.6 13.2 248 11.7
2007-07-04 07:26:58 51°11.666 2°46.112 253.6 13.2 251 12
2007-07-04 07:27:03 51°11.66 2°46.084 254 13.2 250 11.7
2007-07-04 07:27:08 51°11.654 2°46.057 254.4 13.2 251 11.9
2007-07-04 07:27:13 51°11.648 2°46.029 255.1 13.2 252 11.9
2007-07-04 07:27:18 51°11.642 2°46.002 255.4 13.3 251 11.7
2007-07-04 07:27:23 51°11.636 2°45.974 255.4 13.4 252 11.9
2007-07-04 07:27:27 51°11.631 2°45.951 255.6 13.4 251 11.9
2007-07-04 07:27:33 51°11.624 2°45.918 255.4 13.3 252 11.8
2007-07-04 07:27:38 51°11.618 2°45.89 255.9 13.4 251 11.8
2007-07-04 07:27:43 51°11.613 2°45.862 255.7 13.3 252 11.8
2007-07-04 07:27:48 51°11.606 2°45.834 256.1 13.4 251 11.9
2007-07-04 07:27:52 51°11.602 2°45.812 255.5 13.3 251 11.7
2007-07-04 07:27:58 51°11.595 2°45.779 255.5 13.2 251 11.9
2007-07-04 07:28:03 51°11.589 2°45.751 255.7 13.3 252 11.9
2007-07-04 07:28:08 51°11.583 2°45.723 255.4 13.3 252 11.9
2007-07-04 07:28:12 51°11.578 2°45.701 255.9 13.3 251 11.9
2007-07-04 07:28:18 51°11.571 2°45.668 255.6 13.4 251 11.9
2007-07-04 07:28:23 51°11.565 2°45.64 255.5 13.3 251 11.7
2007-07-04 07:28:28 51°11.559 2°45.612 255.4 13.3 251 11.7
2007-07-04 07:28:33 51°11.553 2°45.584 255.7 13.3 252 11.9
2007-07-04 07:28:38 51°11.547 2°45.557 255.7 13.3 251 11.7
2007-07-04 07:28:43 51°11.541 2°45.529 255.9 13.3 252 11.9
2007-07-04 07:28:48 51°11.535 2°45.501 256.2 13.2 251 11.7
2007-07-04 07:28:53 51°11.529 2°45.473 255.4 13.3 251 11.9
2007-07-04 07:28:58 51°11.524 2°45.446 255.3 13.3 251 11.7
2007-07-04 07:29:03 51°11.518 2°45.418 255.5 13.3 251 11.8
2007-07-04 07:29:08 51°11.512 2°45.39 255.4 13.3 251 11.7
2007-07-04 07:29:13 51°11.506 2°45.362 255.3 13.3 251 11.8
2007-07-04 07:29:18 51°11.5 2°45.334 255.4 13.3 252 11.9
2007-07-04 07:29:23 51°11.494 2°45.306 255.6 13.4 251 11.9
2007-07-04 07:29:28 51°11.488 2°45.279 255.3 13.2 252 11.7
2007-07-04 07:29:33 51°11.482 2°45.251 255.4 13.2 251 12
2007-07-04 07:29:38 51°11.476 2°45.224 255.6 13.2 251 11.9
2007-07-04 07:29:43 51°11.47 2°45.196 255.4 13.2 250 11.8
2007-07-04 07:29:48 51°11.465 2°45.169 254.9 13.2 251 11.7
2007-07-04 07:29:53 51°11.458 2°45.141 255.4 13.3 250 12.1
2007-07-04 07:29:58 51°11.453 2°45.113 255.4 13.2 251 11.6
2007-07-04 07:30:03 51°11.447 2°45.086 255.4 13.2 251 11.7
2007-07-04 07:30:07 51°11.442 2°45.064 255.2 13.2 251 11.9
2007-07-04 07:30:13 51°11.435 2°45.031 255.2 13.3 251 11.8
2007-07-04 07:30:18 51°11.429 2°45.003 254.6 13.3 252 11.8
2007-07-04 07:30:23 51°11.423 2°44.975 255.1 13.3 251 11.8
2007-07-04 07:30:28 51°11.417 2°44.947 255.2 13.3 252 11.8
2007-07-04 07:30:33 51°11.411 2°44.919 255.5 13.3 251 11.8
2007-07-04 07:30:38 51°11.405 2°44.892 255.4 13.3 251 11.9
2007-07-04 07:30:43 51°11.399 2°44.864 255.6 13.3 251 11.8
2007-07-04 07:30:48 51°11.393 2°44.836 255.4 13.4 252 11.9
2007-07-04 07:30:53 51°11.388 2°44.808 255.9 13.3 252 11.9
2007-07-04 07:30:58 51°11.382 2°44.78 255.7 13.4 252 11.8
2007-07-04 07:31:03 51°11.376 2°44.751 255.7 13.4 252 11.7
2007-07-04 07:31:08 51°11.371 2°44.724 255.7 13.4 252 11.9
2007-07-04 07:31:13 51°11.365 2°44.696 255.8 13.4 251 11.8
2007-07-04 07:31:18 51°11.359 2°44.668 255.4 13.3 251 11.7
2007-07-04 07:31:23 51°11.353 2°44.64 255.2 13.4 251 11.8
2007-07-04 07:31:28 51°11.347 2°44.612 255.2 13.4 252 11.6
2007-07-04 07:31:33 51°11.341 2°44.584 255.3 13.3 252 12
2007-07-04 07:31:38 51°11.335 2°44.556 255.4 13.4 252 11.9
2007-07-04 07:31:43 51°11.33 2°44.528 255.7 13.4 252 11.8
2007-07-04 07:31:48 51°11.324 2°44.499 255.4 13.4 252 11.8
2007-07-04 07:31:53 51°11.318 2°44.471 255.9 13.4 252 11.8
2007-07-04 07:31:58 51°11.312 2°44.443 255.5 13.4 251 11.6
2007-07-04 07:32:03 51°11.307 2°44.415 255.3 13.4 252 11.7
2007-07-04 07:32:08 51°11.301 2°44.387 255.4 13.4 251 11.9
2007-07-04 07:32:13 51°11.295 2°44.359 255.7 13.4 252 11.7
2007-07-04 07:32:18 51°11.289 2°44.331 255.4 13.4 252 11.7
2007-07-04 07:32:23 51°11.283 2°44.303 255.5 13.3 251 11.7
2007-07-04 07:32:28 51°11.277 2°44.275 255.2 13.4 252 11.9
2007-07-04 07:32:32 51°11.273 2°44.253 255 13.4 252 11.6
2007-07-04 07:32:38 51°11.266 2°44.22 255.3 13.3 252 11.5
2007-07-04 07:32:43 51°11.26 2°44.192 255.4 13.3 251 11.8
2007-07-04 07:32:48 51°11.254 2°44.164 255.2 13.3 252 11.7
2007-07-04 07:32:52 51°11.249 2°44.141 255.2 13.3 251 11.6
2007-07-04 07:32:58 51°11.242 2°44.108 255.1 13.3 252 11.7
2007-07-04 07:33:03 51°11.236 2°44.08 255.2 13.3 251 11.6
2007-07-04 07:33:08 51°11.23 2°44.053 254.7 13.2 251 11.6
2007-07-04 07:33:13 51°11.224 2°44.025 254.9 13.2 251 11.9
2007-07-04 07:33:18 51°11.218 2°43.997 255.1 13.2 252 11.9
2007-07-04 07:33:23 51°11.213 2°43.969 255 13.3 252 11.8
2007-07-04 07:33:28 51°11.207 2°43.941 255 13.3 252 11.8
2007-07-04 07:33:33 51°11.201 2°43.914 255.4 13.3 252 11.7
2007-07-04 07:33:38 51°11.196 2°43.886 255.4 13.1 253 11.5
2007-07-04 07:33:43 51°11.19 2°43.858 255.9 13.3 251 11.7
2007-07-04 07:33:48 51°11.184 2°43.83 255.4 13.2 253 11.6
2007-07-04 07:33:53 51°11.178 2°43.803 255.8 13.2 251 11.7
2007-07-04 07:33:58 51°11.173 2°43.775 255.7 13.2 252 11.6
2007-07-04 07:34:03 51°11.167 2°43.747 255.4 13.3 252 11.6
2007-07-04 07:34:08 51°11.161 2°43.719 255.4 13.3 252 11.6
2007-07-04 07:34:13 51°11.156 2°43.692 255.6 13.2 252 11.7
2007-07-04 07:34:19 51°11.149 2°43.658 255.4 13.3 252 11.7
2007-07-04 07:34:24 51°11.143 2°43.63 255.4 13.3 252 11.6
2007-07-04 07:34:28 51°11.139 2°43.608 255.7 13.3 252 11.5
2007-07-04 07:34:33 51°11.133 2°43.58 255.2 13.3 252 11.6
2007-07-04 07:34:38 51°11.127 2°43.552 255.4 13.3 253 11.6
2007-07-04 07:34:44 51°11.12 2°43.518 256 13.3 252 11.6
2007-07-04 07:34:48 51°11.116 2°43.496 255.7 13.3 253 11.6
2007-07-04 07:34:53 51°11.11 2°43.468 256.1 13.4 252 11.5
2007-07-04 07:34:59 51°11.103 2°43.434 255.7 13.3 252 11.6
2007-07-04 07:35:04 51°11.098 2°43.406 255.9 13.3 253 11.7
2007-07-04 07:35:08 51°11.094 2°43.384 255.6 13.3 253 11.5
2007-07-04 07:35:13 51°11.088 2°43.355 255.6 13.4 253 11.7
2007-07-04 07:35:19 51°11.082 2°43.321 256.5 13.4 255 11.7
2007-07-04 07:35:24 51°11.077 2°43.293 257.2 13.4 255 11.6
2007-07-04 07:35:28 51°11.074 2°43.27 257.9 13.5 255 11.7
2007-07-04 07:35:33 51°11.069 2°43.241 258.4 13.5 255 11.5
2007-07-04 07:35:38 51°11.064 2°43.212 258.5 13.4 256 12
2007-07-04 07:35:44 51°11.058 2°43.178 258.7 13.3 255 11.7
2007-07-04 07:35:48 51°11.054 2°43.156 258.9 13.3 254 11.8
2007-07-04 07:35:53 51°11.05 2°43.127 258.2 13.3 255 11.6
2007-07-04 07:35:58 51°11.045 2°43.098 257.9 13.4 255 11.6
2007-07-04 07:36:04 51°11.039 2°43.064 258.3 13.4 256 11.7
2007-07-04 07:36:08 51°11.036 2°43.041 258.4 13.3 255 11.6
2007-07-04 07:36:13 51°11.031 2°43.013 258.6 13.3 255 11.8
2007-07-04 07:36:18 51°11.026 2°42.984 258.1 13.4 256 11.7
2007-07-04 07:36:23 51°11.021 2°42.956 258.3 13.4 256 11.5
2007-07-04 07:36:28 51°11.016 2°42.927 259.1 13.3 255 11.8
2007-07-04 07:36:33 51°11.012 2°42.899 258.7 13.3 256 11.7
2007-07-04 07:36:38 51°11.007 2°42.87 258.7 13.4 255 11.8
2007-07-04 07:36:44 51°11.001 2°42.836 258.4 13.4 255 11.6
2007-07-04 07:36:48 51°10.998 2°42.813 258 13.5 255 11.8
2007-07-04 07:36:53 51°10.993 2°42.785 258.2 13.4 254 11.8
2007-07-04 07:36:59 51°10.986 2°42.751 257.8 13.3 254 11.6
2007-07-04 07:37:04 51°10.982 2°42.722 257.2 13.3 255 11.6
2007-07-04 07:37:08 51°10.978 2°42.7 257.6 13.3 255 11.8
2007-07-04 07:37:13 51°10.972 2°42.672 257.7 13.2 254 11.6
2007-07-04 07:37:19 51°10.966 2°42.638 257.5 13.3 252 11.7
2007-07-04 07:37:24 51°10.96 2°42.61 256 13.3 252 11.7
2007-07-04 07:37:28 51°10.956 2°42.588 255.3 13.3 252 11.6
2007-07-04 07:37:33 51°10.95 2°42.56 255 13.3 253 11.7
2007-07-04 07:37:38 51°10.944 2°42.532 255.9 13.3 252 11.7
2007-07-04 07:37:44 51°10.937 2°42.498 255.2 13.3 251 11.7
2007-07-04 07:37:48 51°10.932 2°42.477 254.4 13.3 250 11.6
2007-07-04 07:37:53 51°10.926 2°42.449 253.2 13.3 250 11.7
2007-07-04 07:37:58 51°10.919 2°42.421 252.6 13.3 250 11.7
2007-07-04 07:38:04 51°10.911 2°42.388 252.5 13.4 250 11.6
2007-07-04 07:38:08 51°10.906 2°42.366 252.3 13.4 248 11.7
2007-07-04 07:38:13 51°10.898 2°42.339 251.1 13.4 247 11.6
2007-07-04 07:38:18 51°10.891 2°42.312 249.1 13.3 246 11.5
2007-07-04 07:38:23 51°10.884 2°42.285 248.6 13.3 249 11.6
2007-07-04 07:38:28 51°10.878 2°42.257 250 13.3 250 11.6
2007-07-04 07:38:33 51°10.872 2°42.229 252.4 13.3 250 11.6
2007-07-04 07:38:39 51°10.863 2°42.196 252.6 13.4 248 11.8
2007-07-04 07:38:43 51°10.858 2°42.175 251.3 13.4 248 11.6
2007-07-04 07:38:48 51°10.85 2°42.148 250.2 13.4 246 11.5
2007-07-04 07:38:53 51°10.843 2°42.12 249.2 13.4 246 11.6
2007-07-04 07:38:59 51°10.834 2°42.088 248.6 13.4 246 11.7
2007-07-04 07:39:04 51°10.826 2°42.061 248.1 13.5 245 11.6
2007-07-04 07:39:08 51°10.82 2°42.039 247.7 13.4 246 11.6
2007-07-04 07:39:13 51°10.812 2°42.012 248.2 13.5 245 11.6
2007-07-04 07:39:19 51°10.804 2°41.98 248.2 13.3 248 11.6
2007-07-04 07:39:24 51°10.798 2°41.952 248.9 13.4 250 11.7
2007-07-04 07:39:28 51°10.794 2°41.93 250.9 13.3 254 11.4
2007-07-04 07:39:33 51°10.79 2°41.901 254.1 13.2 257 11.6
2007-07-04 07:39:39 51°10.788 2°41.866 259.3 13.2 264 11.5
2007-07-04 07:39:44 51°10.788 2°41.838 264 13 270 11.5
2007-07-04 07:39:48 51°10.789 2°41.815 271.6 13 276 11.7
2007-07-04 07:39:53 51°10.793 2°41.786 276.7 12.9 282 11.5
2007-07-04 07:39:58 51°10.798 2°41.76 283.3 12.8 288 11.7
2007-07-04 07:40:04 51°10.807 2°41.729 289.7 12.7 295 11.7
2007-07-04 07:40:08 51°10.815 2°41.71 296.6 12.5 301 11.8
2007-07-04 07:40:13 51°10.825 2°41.689 303.5 12.4 307 11.9
2007-07-04 07:40:18 51°10.837 2°41.67 310.4 12.3 315 11.6
2007-07-04 07:40:23 51°10.851 2°41.653 317.5 12.2 323 11.7
2007-07-04 07:40:28 51°10.865 2°41.639 324.8 12.2 329 11.8
2007-07-04 07:40:33 51°10.881 2°41.628 331.9 12.1 336 11.4
2007-07-04 07:40:38 51°10.897 2°41.62 339.3 12.1 343 11.7
2007-07-04 07:40:43 51°10.913 2°41.616 346.2 11.9 351 11.3
2007-07-04 07:40:49 51°10.933 2°41.614 354.6 12 356 11.4
2007-07-04 07:40:53 51°10.947 2°41.616 359.7 12 3 11.3
2007-07-04 07:40:59 51°10.965 2°41.62 6.7 11.1 8 11.3
2007-07-04 07:41:03 51°10.976 2°41.624 12.7 10.1 13 11
2007-07-04 07:41:08 51°10.989 2°41.63 17.2 9.7 16 11.4
2007-07-04 07:41:13 51°11.001 2°41.637 21.1 9.2 19 11.4
2007-07-04 07:41:19 51°11.014 2°41.647 25.1 8.8 25 11.5
2007-07-04 07:41:24 51°11.024 2°41.657 29.1 8.7 31 11.6
2007-07-04 07:41:28 51°11.033 2°41.666 33.7 8.8 32 11.5
2007-07-04 07:41:33 51°11.041 2°41.679 40 8.7 42 11.6
2007-07-04 07:41:39 51°11.051 2°41.697 43.7 8.9 48 11.4
2007-07-04 07:41:44 51°11.058 2°41.713 50.6 9 53 11.6
2007-07-04 07:41:47 51°11.062 2°41.724 55.4 9.1 60 11.5
2007-07-04 07:41:52 51°11.068 2°41.741 61.5 9.3 61 11.4
2007-07-04 07:41:58 51°11.075 2°41.765 66.4 9.5 66 11.5
2007-07-04 07:42:03 51°11.079 2°41.784 69.2 9.6 71 11.5
2007-07-04 07:42:08 51°11.083 2°41.805 71.1 9.7 71 11.4
2007-07-04 07:42:13 51°11.086 2°41.826 73.8 9.6 78 11.4
2007-07-04 07:42:18 51°11.089 2°41.847 77.8 9.7 78 11.5
2007-07-04 07:42:23 51°11.091 2°41.868 81.2 9.6 82 11.3
2007-07-04 07:42:28 51°11.092 2°41.888 83.2 9.1 84 11.3
2007-07-04 07:42:33 51°11.093 2°41.907 85.2 8.7 84 11.2
2007-07-04 07:42:38 51°11.094 2°41.925 86.3 8.4 83 11.4
2007-07-04 07:42:43 51°11.095 2°41.943 85.6 8.2 86 11.4
2007-07-04 07:42:48 51°11.096 2°41.96 86.2 7.7 85 11.5
2007-07-04 07:42:53 51°11.097 2°41.976 85.4 7.4 81 11.4
2007-07-04 07:42:58 51°11.098 2°41.991 85 6.9 86 11.4
2007-07-04 07:43:03 51°11.1 2°42.006 84.5 6.6 81 11.4
2007-07-04 07:43:08 51°11.101 2°42.02 83.4 6.4 79 11.5
2007-07-04 07:43:13 51°11.103 2°42.033 81.9 6 80 11.4
2007-07-04 07:43:18 51°11.105 2°42.045 80.7 5.6 76 11.4
2007-07-04 07:43:23 51°11.106 2°42.056 79.1 5.3 74 11.5
2007-07-04 07:43:28 51°11.108 2°42.067 76.7 4.9 75 11.4
2007-07-04 07:43:33 51°11.111 2°42.076 74.2 4.5 69 11.4
2007-07-04 07:43:38 51°11.113 2°42.085 71.4 4.3 68 11.4
2007-07-04 07:43:43 51°11.115 2°42.092 70 3.8 65 11.3
2007-07-04 07:43:48 51°11.117 2°42.099 68.9 3.2 63 11.4
2007-07-04 07:43:53 51°11.119 2°42.104 66.2 2.6 59 11.5
2007-07-04 07:43:58 51°11.121 2°42.107 61.3 2.1 54 11.4
2007-07-04 07:44:03 51°11.123 2°42.109 56 1.6 38 11.4
2007-07-04 07:44:08 51°11.124 2°42.111 51.3 1.3 43 11.4
2007-07-04 07:44:13 51°11.125 2°42.112 48.6 0.9 31 11.3
2007-07-04 07:44:18 51°11.125 2°42.113 47.1 0.6 41 11.4
2007-07-04 07:44:23 51°11.126 2°42.113 46.1 0.6 15 11.4
2007-07-04 07:44:28 51°11.127 2°42.114 44.8 0.6 28 11.3
2007-07-04 07:44:33 51°11.127 2°42.114 42.8 0.6 23 11.3
2007-07-04 07:44:38 51°11.128 2°42.115 40.6 0.6 25 11.1
2007-07-04 07:44:43 51°11.129 2°42.115 38.3 0.5 29 11.2
2007-07-04 07:44:48 51°11.129 2°42.115 36.1 0.5 16 11.3
2007-07-04 07:44:53 51°11.13 2°42.115 33.7 0.5 11 11.4
2007-07-04 07:44:58 51°11.13 2°42.116 31.7 0.5 356 11.3
2007-07-04 07:45:03 51°11.131 2°42.116 29.8 0.5 13 11.4
2007-07-04 07:45:08 51°11.132 2°42.116 27.7 0.5 356 11.4
2007-07-04 07:45:13 51°11.132 2°42.116 25.9 0.4 -999 11.4
2007-07-04 07:45:18 51°11.133 2°42.115 23.9 0.4 343 11.5
2007-07-04 07:45:23 51°11.133 2°42.115 22 0.3 351 11.5
2007-07-04 07:45:28 51°11.134 2°42.115 20.3 0.2 342 11.6
2007-07-04 07:45:33 51°11.134 2°42.115 18.3 0.2 1 11.7
2007-07-04 07:45:38 51°11.135 2°42.115 17 0.2 33 11.3
2007-07-04 07:45:43 51°11.135 2°42.115 16.6 0.2 315 11
2007-07-04 07:45:48 51°11.135 2°42.115 16 0.1 8 11.1
2007-07-04 07:45:53 51°11.135 2°42.114 15.2 0.2 319 11.2
2007-07-04 07:45:58 51°11.135 2°42.114 13.8 0.1 -999 11.4
2007-07-04 07:46:03 51°11.136 2°42.114 12.5 0.2 317 11.5
2007-07-04 07:46:08 51°11.136 2°42.113 11.3 -999 343 11.4
2007-07-04 07:46:13 51°11.136 2°42.113 10.6 0.3 278 11.5
2007-07-04 07:46:18 51°11.136 2°42.113 9.7 -999 86 11.5
2007-07-04 07:46:23 51°11.136 2°42.112 8.8 0.2 282 11.4
2007-07-04 07:46:28 51°11.136 2°42.112 8.3 0.1 299 11.4
2007-07-04 07:46:33 51°11.136 2°42.111 7.9 0.2 269 11.4
2007-07-04 07:46:38 51°11.136 2°42.111 7 0.1 223 11.5
2007-07-04 07:46:43 51°11.136 2°42.111 6.1 0.2 276 11.5
2007-07-04 07:46:48 51°11.136 2°42.111 5.7 0.1 281 11.3
2007-07-04 07:46:53 51°11.136 2°42.11 5.7 0.2 271 11.2
2007-07-04 07:46:58 51°11.136 2°42.11 5.3 0.3 251 11.3
2007-07-04 07:47:03 51°11.136 2°42.11 5 0.2 226 11.6
2007-07-04 07:47:08 51°11.135 2°42.109 4.6 0.2 225 11.5
2007-07-04 07:47:13 51°11.135 2°42.109 4.2 0.2 213 11.3
2007-07-04 07:47:18 51°11.135 2°42.109 3.7 0.2 224 11.4
2007-07-04 07:47:23 51°11.135 2°42.109 3.4 0.2 208 11.5
2007-07-04 07:47:28 51°11.135 2°42.109 3.3 0.2 175 11.5
2007-07-04 07:47:33 51°11.135 2°42.109 3.6 0.1 160 11.4
2007-07-04 07:47:38 51°11.134 2°42.108 4.3 0.1 219 11.4
2007-07-04 07:47:43 51°11.134 2°42.108 4.6 0.1 224 11.2
2007-07-04 07:47:48 51°11.134 2°42.108 4.2 0.1 184 11.3
2007-07-04 07:47:53 51°11.134 2°42.108 3.6 0.1 239 11.4
2007-07-04 07:47:58 51°11.134 2°42.108 3.1 -999 188 11.2
2007-07-04 07:48:03 51°11.134 2°42.108 3.2 0.1 222 11.1
2007-07-04 07:48:08 51°11.133 2°42.108 3.4 0.2 195 11.3
2007-07-04 07:48:13 51°11.133 2°42.108 3.5 0.2 134 11.5
2007-07-04 07:48:18 51°11.133 2°42.108 3 0.1 202 11.4
2007-07-04 07:48:23 51°11.133 2°42.108 3.6 0.3 135 11.4
2007-07-04 07:48:28 51°11.133 2°42.108 3.4 0.2 174 11.5
2007-07-04 07:48:33 51°11.133 2°42.109 3.3 0.3 123 11.4
2007-07-04 07:48:38 51°11.132 2°42.108 4.7 0.2 191 11.2
2007-07-04 07:48:43 51°11.132 2°42.109 5 0.2 158 11.2
2007-07-04 07:48:48 51°11.132 2°42.109 5 0.2 121 11.1
2007-07-04 07:48:53 51°11.132 2°42.109 5.1 0.2 140 11.1
2007-07-04 07:48:58 51°11.131 2°42.109 5.2 0.2 185 11.3
2007-07-04 07:49:03 51°11.131 2°42.109 5.1 0.2 145 11.4
2007-07-04 07:49:08 51°11.131 2°42.109 5 0.2 155 11.4
2007-07-04 07:49:13 51°11.131 2°42.109 5.1 0.2 180 11.6
2007-07-04 07:49:18 51°11.13 2°42.109 5 0.3 204 11.5
2007-07-04 07:49:23 51°11.13 2°42.109 4.7 0.3 214 11.6
2007-07-04 07:49:28 51°11.13 2°42.109 4.4 0.3 189 11.4
2007-07-04 07:49:33 51°11.13 2°42.109 4.1 0.3 182 11.5
2007-07-04 07:49:38 51°11.129 2°42.109 4.1 0.3 183 11.4
2007-07-04 07:49:43 51°11.129 2°42.109 4.6 0.3 150 11.2
2007-07-04 07:49:48 51°11.129 2°42.109 5.8 0.3 171 11.3
2007-07-04 07:49:53 51°11.128 2°42.109 5.9 0.3 167 11.4
2007-07-04 07:49:58 51°11.128 2°42.109 6.2 0.2 169 11.4
2007-07-04 07:50:03 51°11.128 2°42.109 6.3 0.2 196 11.5
2007-07-04 07:50:08 51°11.127 2°42.109 6.8 0.3 199 11.6
2007-07-04 07:50:13 51°11.127 2°42.109 6.8 0.3 210 11.6
2007-07-04 07:50:18 51°11.127 2°42.109 6.8 0.2 198 11.6
2007-07-04 07:50:23 51°11.126 2°42.109 6.8 0.2 156 11.4
2007-07-04 07:50:28 51°11.126 2°42.109 7 0.1 162 11.3
2007-07-04 07:50:33 51°11.126 2°42.109 7.2 0.2 157 11.1
2007-07-04 07:50:38 51°11.125 2°42.109 7.6 0.3 167 11.1
2007-07-04 07:50:43 51°11.124 2°42.109 7.9 0.4 197 11.1
2007-07-04 07:50:48 51°11.124 2°42.109 8.5 0.5 167 11.3
2007-07-04 07:50:53 51°11.123 2°42.108 8.2 0.5 219 11.4
2007-07-04 07:50:58 51°11.123 2°42.108 8.4 0.5 206 11.4
2007-07-04 07:51:03 51°11.122 2°42.108 9.4 0.4 199 11.4
2007-07-04 07:51:08 51°11.122 2°42.108 9.5 0.4 210 11.3
2007-07-04 07:51:13 51°11.121 2°42.109 10.2 0.4 164 11.3
2007-07-04 07:51:18 51°11.121 2°42.109 10.8 0.4 160 11.4
2007-07-04 07:51:23 51°11.12 2°42.109 11.2 0.5 147 11.4
2007-07-04 07:51:28 51°11.12 2°42.109 11.9 0.4 174 11.4
2007-07-04 07:51:33 51°11.119 2°42.109 12.7 0.4 178 11.3
2007-07-04 07:51:38 51°11.119 2°42.109 12.6 0.4 162 11.5
2007-07-04 07:51:43 51°11.118 2°42.108 13 0.4 189 11.3
2007-07-04 07:51:48 51°11.118 2°42.109 13.9 0.4 179 11.3
2007-07-04 07:51:53 51°11.117 2°42.109 13.9 0.4 164 11.4
2007-07-04 07:51:58 51°11.117 2°42.109 13.8 0.4 166 11.6
2007-07-04 07:52:03 51°11.116 2°42.108 13.8 0.4 177 11.8
2007-07-04 07:52:08 51°11.116 2°42.108 13.5 0.4 191 11.7
2007-07-04 07:52:13 51°11.115 2°42.108 13.8 0.4 203 11.6
2007-07-04 07:52:18 51°11.115 2°42.108 14.1 0.4 192 11.5
2007-07-04 07:52:23 51°11.114 2°42.108 14.3 0.4 203 11.5
2007-07-04 07:52:28 51°11.113 2°42.108 14.4 0.4 167 11.5
2007-07-04 07:52:33 51°11.113 2°42.109 14.6 0.5 152 11.4
2007-07-04 07:52:38 51°11.112 2°42.108 15 0.5 161 11.4
2007-07-04 07:52:43 51°11.112 2°42.108 15.2 0.6 162 11.5
2007-07-04 07:52:48 51°11.111 2°42.108 15.6 0.5 168 11.5
2007-07-04 07:52:53 51°11.11 2°42.108 15.8 0.5 176 11.3
2007-07-04 07:52:58 51°11.11 2°42.108 15.8 0.5 185 11.3
2007-07-04 07:53:03 51°11.109 2°42.109 15.5 0.5 170 11.3
2007-07-04 07:53:08 51°11.109 2°42.108 15.9 0.4 178 11.3
2007-07-04 07:53:13 51°11.108 2°42.108 16 0.4 198 11.5
2007-07-04 07:53:18 51°11.108 2°42.108 16 0.5 181 11.6
2007-07-04 07:53:23 51°11.107 2°42.108 15.7 0.5 189 11.6
2007-07-04 07:53:28 51°11.107 2°42.108 15.8 0.5 197 11.5
2007-07-04 07:53:33 51°11.106 2°42.108 15.9 0.4 183 11.5
2007-07-04 07:53:38 51°11.106 2°42.108 15.7 0.4 191 11.4
2007-07-04 07:53:43 51°11.105 2°42.109 15.9 0.4 177 11.5
2007-07-04 07:53:48 51°11.104 2°42.108 15.6 0.4 177 11.5
2007-07-04 07:53:53 51°11.104 2°42.108 15.6 0.4 191 11.5
2007-07-04 07:53:58 51°11.103 2°42.109 15.4 0.5 163 11.5
2007-07-04 07:54:03 51°11.103 2°42.108 15.4 0.4 180 11.5
2007-07-04 07:54:08 51°11.102 2°42.108 15.2 0.4 172 11.5
2007-07-04 07:54:13 51°11.101 2°42.108 14.8 0.4 185 11.5
2007-07-04 07:54:18 51°11.101 2°42.108 14.5 0.4 181 11.5
2007-07-04 07:54:23 51°11.1 2°42.108 14.2 0.4 181 11.4
2007-07-04 07:54:28 51°11.1 2°42.109 14.3 0.5 155 11.3
2007-07-04 07:54:33 51°11.099 2°42.108 13.9 0.5 162 11.4
2007-07-04 07:54:38 51°11.099 2°42.108 14 0.4 175 11.6
2007-07-04 07:54:43 51°11.098 2°42.108 13.8 0.3 186 11.4
2007-07-04 07:54:48 51°11.098 2°42.108 14.2 0.3 179 11.3
2007-07-04 07:54:53 51°11.097 2°42.108 14.5 0.3 196 11.3
2007-07-04 07:54:58 51°11.097 2°42.109 14.7 0.4 180 11.4
2007-07-04 07:55:03 51°11.096 2°42.108 14.7 0.4 190 11.4
2007-07-04 07:55:08 51°11.095 2°42.108 14.5 0.5 189 11.4
2007-07-04 07:55:13 51°11.095 2°42.108 14.4 0.4 201 11.5
2007-07-04 07:55:18 51°11.094 2°42.109 14.2 0.4 168 11.4
2007-07-04 07:55:23 51°11.094 2°42.108 14.1 0.4 179 11.5
2007-07-04 07:55:28 51°11.093 2°42.108 13.7 0.4 186 11.5
2007-07-04 07:55:33 51°11.093 2°42.108 13.7 0.4 183 11.6
2007-07-04 07:55:38 51°11.092 2°42.108 13.1 0.5 180 11.6
2007-07-04 07:55:43 51°11.091 2°42.108 12.4 0.5 175 11.5
2007-07-04 07:55:48 51°11.091 2°42.108 12.1 0.5 163 11.5
2007-07-04 07:55:53 51°11.091 2°42.108 11.6 0.4 179 11.5
2007-07-04 07:55:58 51°11.09 2°42.108 11.9 0.4 176 11.4
2007-07-04 07:56:03 51°11.089 2°42.108 11.6 0.4 187 11.5
2007-07-04 07:56:08 51°11.089 2°42.108 11.2 0.4 201 11.4
2007-07-04 07:56:13 51°11.088 2°42.108 10.8 0.4 197 11.4
2007-07-04 07:56:18 51°11.088 2°42.109 10.4 0.4 183 11.4
2007-07-04 07:56:23 51°11.088 2°42.108 10.1 0.3 181 11.4
2007-07-04 07:56:28 51°11.087 2°42.109 10.1 0.4 187 11.5
2007-07-04 07:56:33 51°11.087 2°42.109 9.8 0.4 185 11.5
2007-07-04 07:56:38 51°11.086 2°42.108 9.5 0.4 191 11.5
2007-07-04 07:56:43 51°11.085 2°42.109 9.5 0.4 175 11.5
2007-07-04 07:56:48 51°11.085 2°42.109 9.4 0.4 182 11.7
2007-07-04 07:56:53 51°11.085 2°42.109 9.2 0.4 193 11.5
2007-07-04 07:56:58 51°11.084 2°42.109 9.5 0.4 180 11.5
2007-07-04 07:57:03 51°11.084 2°42.109 9.4 0.3 172 11.5
2007-07-04 07:57:08 51°11.083 2°42.108 9.3 0.3 191 11.6
2007-07-04 07:57:13 51°11.083 2°42.109 8.9 0.4 169 11.4
2007-07-04 07:57:18 51°11.082 2°42.108 8.9 0.4 188 11.6
2007-07-04 07:57:23 51°11.082 2°42.109 8.9 0.4 161 11.7
2007-07-04 07:57:28 51°11.081 2°42.109 9 0.3 169 11.4
2007-07-04 07:57:33 51°11.081 2°42.109 9.9 0.4 170 11.4
2007-07-04 07:57:38 51°11.08 2°42.109 10.3 0.4 167 11.5
2007-07-04 07:57:43 51°11.08 2°42.109 10.2 0.5 153 11.3
2007-07-04 07:57:48 51°11.079 2°42.109 10.3 0.4 171 11.4
2007-07-04 07:57:53 51°11.079 2°42.109 10.5 0.4 156 11.4
2007-07-04 07:57:58 51°11.078 2°42.109 10.7 0.4 154 11.3
2007-07-04 07:58:03 51°11.078 2°42.109 11 0.4 168 11.2
2007-07-04 07:58:08 51°11.077 2°42.108 11 0.4 176 11.4
2007-07-04 07:58:13 51°11.076 2°42.108 10.9 0.4 192 11.5
2007-07-04 07:58:18 51°11.076 2°42.108 11 0.4 188 11.6
2007-07-04 07:58:23 51°11.076 2°42.108 11.3 0.4 215 11.5
2007-07-04 07:58:28 51°11.075 2°42.108 12 0.3 196 11.5
2007-07-04 07:58:33 51°11.075 2°42.108 12.7 0.3 190 11.4
2007-07-04 07:58:38 51°11.074 2°42.108 13 0.4 204 11.4
2007-07-04 07:58:43 51°11.073 2°42.108 12.9 0.4 176 11.4
2007-07-04 07:58:48 51°11.073 2°42.108 13.2 0.4 198 11.4
2007-07-04 07:58:53 51°11.073 2°42.108 13.4 0.4 190 11.5
2007-07-04 07:58:58 51°11.072 2°42.108 13 0.5 173 11.7
2007-07-04 07:59:03 51°11.071 2°42.108 12.6 0.4 181 11.7